sensor_id;sensor_type;location;lat;lon;timestamp;P1;durP1;ratioP1;P2;durP2;ratioP2
71979;SDS011;59853;48.190;11.860;2022-11-15T00:00:33;10.15;;;5.60;;
71979;SDS011;59853;48.190;11.860;2022-11-15T00:03:18;9.25;;;5.28;;
71979;SDS011;59853;48.190;11.860;2022-11-15T00:06:04;11.57;;;5.82;;
71979;SDS011;59853;48.190;11.860;2022-11-15T00:08:48;10.82;;;6.25;;
71979;SDS011;59853;48.190;11.860;2022-11-15T00:11:32;9.82;;;5.18;;
71979;SDS011;59853;48.190;11.860;2022-11-15T00:14:17;9.23;;;5.18;;
71979;SDS011;59853;48.190;11.860;2022-11-15T00:17:01;9.25;;;5.55;;
71979;SDS011;59853;48.190;11.860;2022-11-15T00:19:46;10.77;;;4.97;;
71979;SDS011;59853;48.190;11.860;2022-11-15T00:22:33;13.23;;;5.72;;
71979;SDS011;59853;48.190;11.860;2022-11-15T00:25:17;8.60;;;4.97;;
71979;SDS011;59853;48.190;11.860;2022-11-15T00:28:02;10.13;;;5.20;;
71979;SDS011;59853;48.190;11.860;2022-11-15T00:30:46;12.02;;;6.10;;
71979;SDS011;59853;48.190;11.860;2022-11-15T00:33:30;11.25;;;5.85;;
71979;SDS011;59853;48.190;11.860;2022-11-15T00:36:14;11.45;;;6.22;;
71979;SDS011;59853;48.190;11.860;2022-11-15T00:38:59;17.50;;;9.15;;
71979;SDS011;59853;48.190;11.860;2022-11-15T00:41:43;18.90;;;9.43;;
71979;SDS011;59853;48.190;11.860;2022-11-15T00:44:27;15.27;;;7.15;;
71979;SDS011;59853;48.190;11.860;2022-11-15T00:47:11;12.65;;;6.55;;
71979;SDS011;59853;48.190;11.860;2022-11-15T00:49:56;13.40;;;7.30;;
71979;SDS011;59853;48.190;11.860;2022-11-15T00:52:40;10.05;;;6.22;;
71979;SDS011;59853;48.190;11.860;2022-11-15T00:55:24;12.18;;;6.35;;
71979;SDS011;59853;48.190;11.860;2022-11-15T00:58:08;11.15;;;5.50;;
71979;SDS011;59853;48.190;11.860;2022-11-15T01:00:52;10.70;;;6.00;;
71979;SDS011;59853;48.190;11.860;2022-11-15T01:03:36;10.48;;;5.82;;
71979;SDS011;59853;48.190;11.860;2022-11-15T01:06:21;13.07;;;6.28;;
71979;SDS011;59853;48.190;11.860;2022-11-15T01:09:06;9.43;;;5.90;;
71979;SDS011;59853;48.190;11.860;2022-11-15T01:11:50;9.10;;;5.25;;
71979;SDS011;59853;48.190;11.860;2022-11-15T01:14:35;12.13;;;6.47;;
71979;SDS011;59853;48.190;11.860;2022-11-15T01:17:19;10.18;;;5.78;;
71979;SDS011;59853;48.190;11.860;2022-11-15T01:20:06;10.77;;;6.28;;
71979;SDS011;59853;48.190;11.860;2022-11-15T01:22:51;11.02;;;6.80;;
71979;SDS011;59853;48.190;11.860;2022-11-15T01:25:35;14.52;;;7.35;;
71979;SDS011;59853;48.190;11.860;2022-11-15T01:28:20;11.00;;;6.57;;
71979;SDS011;59853;48.190;11.860;2022-11-15T01:31:05;10.70;;;5.72;;
71979;SDS011;59853;48.190;11.860;2022-11-15T01:33:50;10.73;;;5.95;;
71979;SDS011;59853;48.190;11.860;2022-11-15T01:36:34;11.98;;;5.57;;
71979;SDS011;59853;48.190;11.860;2022-11-15T01:39:19;8.95;;;5.35;;
71979;SDS011;59853;48.190;11.860;2022-11-15T01:42:03;9.30;;;4.68;;
71979;SDS011;59853;48.190;11.860;2022-11-15T01:44:48;10.00;;;5.05;;
71979;SDS011;59853;48.190;11.860;2022-11-15T01:47:37;9.50;;;5.55;;
71979;SDS011;59853;48.190;11.860;2022-11-15T01:50:25;8.90;;;4.93;;
71979;SDS011;59853;48.190;11.860;2022-11-15T01:53:11;8.73;;;5.05;;
71979;SDS011;59853;48.190;11.860;2022-11-15T01:55:55;8.25;;;4.78;;
71979;SDS011;59853;48.190;11.860;2022-11-15T01:58:40;9.93;;;5.60;;
71979;SDS011;59853;48.190;11.860;2022-11-15T02:01:25;9.57;;;4.90;;
71979;SDS011;59853;48.190;11.860;2022-11-15T02:04:13;7.88;;;4.65;;
71979;SDS011;59853;48.190;11.860;2022-11-15T02:07:01;8.93;;;4.72;;
71979;SDS011;59853;48.190;11.860;2022-11-15T02:09:46;10.23;;;5.60;;
71979;SDS011;59853;48.190;11.860;2022-11-15T02:12:31;9.02;;;5.05;;
71979;SDS011;59853;48.190;11.860;2022-11-15T02:15:15;8.85;;;4.78;;
71979;SDS011;59853;48.190;11.860;2022-11-15T02:18:08;9.27;;;4.75;;
71979;SDS011;59853;48.190;11.860;2022-11-15T02:21:02;9.18;;;4.47;;
71979;SDS011;59853;48.190;11.860;2022-11-15T02:26:52;7.38;;;4.43;;
71979;SDS011;59853;48.190;11.860;2022-11-15T02:35:48;10.50;;;4.68;;
71979;SDS011;59853;48.190;11.860;2022-11-15T02:38:52;7.38;;;4.10;;
71979;SDS011;59853;48.190;11.860;2022-11-15T02:41:45;5.78;;;3.42;;
71979;SDS011;59853;48.190;11.860;2022-11-15T02:45:24;6.72;;;3.83;;
71979;SDS011;59853;48.190;11.860;2022-11-15T02:48:11;8.07;;;4.00;;
71979;SDS011;59853;48.190;11.860;2022-11-15T02:50:55;7.00;;;3.53;;
71979;SDS011;59853;48.190;11.860;2022-11-15T02:53:40;5.90;;;3.53;;
71979;SDS011;59853;48.190;11.860;2022-11-15T02:56:24;7.57;;;3.80;;
71979;SDS011;59853;48.190;11.860;2022-11-15T02:59:24;5.85;;;3.20;;
71979;SDS011;59853;48.190;11.860;2022-11-15T03:08:46;5.82;;;3.50;;
71979;SDS011;59853;48.190;11.860;2022-11-15T03:11:37;4.88;;;2.63;;
71979;SDS011;59853;48.190;11.860;2022-11-15T03:14:35;6.63;;;3.05;;
71979;SDS011;59853;48.190;11.860;2022-11-15T03:17:23;5.90;;;3.50;;
71979;SDS011;59853;48.190;11.860;2022-11-15T03:20:09;9.82;;;4.05;;
71979;SDS011;59853;48.190;11.860;2022-11-15T03:22:56;6.72;;;3.58;;
71979;SDS011;59853;48.190;11.860;2022-11-15T03:25:45;6.55;;;3.63;;
71979;SDS011;59853;48.190;11.860;2022-11-15T03:28:36;7.13;;;3.90;;
71979;SDS011;59853;48.190;11.860;2022-11-15T03:31:23;6.95;;;3.10;;
71979;SDS011;59853;48.190;11.860;2022-11-15T03:34:31;7.22;;;3.75;;
71979;SDS011;59853;48.190;11.860;2022-11-15T03:37:20;7.47;;;3.53;;
71979;SDS011;59853;48.190;11.860;2022-11-15T03:40:06;5.63;;;3.10;;
71979;SDS011;59853;48.190;11.860;2022-11-15T03:42:54;8.02;;;3.60;;
71979;SDS011;59853;48.190;11.860;2022-11-15T03:45:51;6.57;;;3.63;;
71979;SDS011;59853;48.190;11.860;2022-11-15T03:48:49;7.43;;;3.40;;
71979;SDS011;59853;48.190;11.860;2022-11-15T03:51:35;7.38;;;3.72;;
71979;SDS011;59853;48.190;11.860;2022-11-15T03:54:19;6.50;;;3.70;;
71979;SDS011;59853;48.190;11.860;2022-11-15T03:57:03;8.25;;;3.85;;
71979;SDS011;59853;48.190;11.860;2022-11-15T03:59:48;5.28;;;2.97;;
71979;SDS011;59853;48.190;11.860;2022-11-15T04:02:32;6.10;;;3.75;;
71979;SDS011;59853;48.190;11.860;2022-11-15T04:05:17;6.38;;;3.33;;
71979;SDS011;59853;48.190;11.860;2022-11-15T04:08:01;7.50;;;3.65;;
71979;SDS011;59853;48.190;11.860;2022-11-15T04:10:45;8.30;;;3.75;;
71979;SDS011;59853;48.190;11.860;2022-11-15T04:13:32;6.43;;;3.97;;
71979;SDS011;59853;48.190;11.860;2022-11-15T04:16:16;6.53;;;3.80;;
71979;SDS011;59853;48.190;11.860;2022-11-15T04:19:00;9.02;;;3.80;;
71979;SDS011;59853;48.190;11.860;2022-11-15T04:22:03;5.93;;;3.50;;
71979;SDS011;59853;48.190;11.860;2022-11-15T04:25:06;5.25;;;3.20;;
71979;SDS011;59853;48.190;11.860;2022-11-15T04:27:50;8.20;;;3.75;;
71979;SDS011;59853;48.190;11.860;2022-11-15T04:30:34;6.53;;;3.58;;
71979;SDS011;59853;48.190;11.860;2022-11-15T04:33:19;5.90;;;3.88;;
71979;SDS011;59853;48.190;11.860;2022-11-15T04:36:03;7.25;;;4.00;;
71979;SDS011;59853;48.190;11.860;2022-11-15T04:39:06;8.30;;;4.20;;
71979;SDS011;59853;48.190;11.860;2022-11-15T04:41:50;7.95;;;4.38;;
71979;SDS011;59853;48.190;11.860;2022-11-15T04:44:34;6.53;;;3.83;;
71979;SDS011;59853;48.190;11.860;2022-11-15T04:47:19;7.03;;;3.92;;
71979;SDS011;59853;48.190;11.860;2022-11-15T04:50:03;8.55;;;4.45;;
71979;SDS011;59853;48.190;11.860;2022-11-15T04:52:52;7.38;;;4.20;;
71979;SDS011;59853;48.190;11.860;2022-11-15T04:55:36;7.80;;;4.47;;
71979;SDS011;59853;48.190;11.860;2022-11-15T04:58:21;6.75;;;4.20;;
71979;SDS011;59853;48.190;11.860;2022-11-15T05:01:08;6.78;;;4.25;;
71979;SDS011;59853;48.190;11.860;2022-11-15T05:03:57;8.40;;;4.40;;
71979;SDS011;59853;48.190;11.860;2022-11-15T05:07:00;6.63;;;4.13;;
71979;SDS011;59853;48.190;11.860;2022-11-15T05:09:44;8.57;;;5.00;;
71979;SDS011;59853;48.190;11.860;2022-11-15T05:12:29;8.18;;;4.70;;
71979;SDS011;59853;48.190;11.860;2022-11-15T05:15:13;7.63;;;4.65;;
71979;SDS011;59853;48.190;11.860;2022-11-15T05:17:58;8.82;;;4.35;;
71979;SDS011;59853;48.190;11.860;2022-11-15T05:20:44;7.07;;;4.22;;
71979;SDS011;59853;48.190;11.860;2022-11-15T05:23:28;7.68;;;4.35;;
71979;SDS011;59853;48.190;11.860;2022-11-15T05:26:13;7.25;;;4.18;;
71979;SDS011;59853;48.190;11.860;2022-11-15T05:28:59;6.80;;;4.38;;
71979;SDS011;59853;48.190;11.860;2022-11-15T05:31:43;7.88;;;4.45;;
71979;SDS011;59853;48.190;11.860;2022-11-15T05:34:27;7.13;;;4.63;;
71979;SDS011;59853;48.190;11.860;2022-11-15T05:37:13;8.65;;;4.45;;
71979;SDS011;59853;48.190;11.860;2022-11-15T05:39:57;7.15;;;3.90;;
71979;SDS011;59853;48.190;11.860;2022-11-15T05:42:41;8.05;;;4.07;;
71979;SDS011;59853;48.190;11.860;2022-11-15T05:45:25;7.15;;;4.28;;
71979;SDS011;59853;48.190;11.860;2022-11-15T05:48:10;6.40;;;4.20;;
71979;SDS011;59853;48.190;11.860;2022-11-15T05:50:54;8.88;;;4.32;;
71979;SDS011;59853;48.190;11.860;2022-11-15T05:53:38;7.57;;;3.95;;
71979;SDS011;59853;48.190;11.860;2022-11-15T05:56:22;8.70;;;4.47;;
71979;SDS011;59853;48.190;11.860;2022-11-15T05:59:07;8.48;;;4.28;;
71979;SDS011;59853;48.190;11.860;2022-11-15T06:01:51;9.45;;;4.65;;
71979;SDS011;59853;48.190;11.860;2022-11-15T06:04:36;9.85;;;4.57;;
71979;SDS011;59853;48.190;11.860;2022-11-15T06:07:20;8.70;;;4.60;;
71979;SDS011;59853;48.190;11.860;2022-11-15T06:10:04;6.70;;;4.03;;
71979;SDS011;59853;48.190;11.860;2022-11-15T06:12:58;10.75;;;4.68;;
71979;SDS011;59853;48.190;11.860;2022-11-15T06:15:47;7.70;;;4.20;;
71979;SDS011;59853;48.190;11.860;2022-11-15T06:18:31;8.60;;;4.93;;
71979;SDS011;59853;48.190;11.860;2022-11-15T06:21:17;9.32;;;5.00;;
71979;SDS011;59853;48.190;11.860;2022-11-15T06:24:01;6.32;;;4.20;;
71979;SDS011;59853;48.190;11.860;2022-11-15T06:26:45;7.68;;;4.63;;
71979;SDS011;59853;48.190;11.860;2022-11-15T06:29:29;10.52;;;5.70;;
71979;SDS011;59853;48.190;11.860;2022-11-15T06:32:14;8.90;;;4.35;;
71979;SDS011;59853;48.190;11.860;2022-11-15T06:34:58;8.50;;;4.47;;
71979;SDS011;59853;48.190;11.860;2022-11-15T06:37:42;8.43;;;4.60;;
71979;SDS011;59853;48.190;11.860;2022-11-15T06:40:27;8.98;;;4.70;;
71979;SDS011;59853;48.190;11.860;2022-11-15T06:43:11;9.85;;;4.53;;
71979;SDS011;59853;48.190;11.860;2022-11-15T06:45:55;8.48;;;4.80;;
71979;SDS011;59853;48.190;11.860;2022-11-15T06:48:41;9.93;;;4.70;;
71979;SDS011;59853;48.190;11.860;2022-11-15T06:51:26;8.73;;;4.57;;
71979;SDS011;59853;48.190;11.860;2022-11-15T06:54:10;10.32;;;4.85;;
71979;SDS011;59853;48.190;11.860;2022-11-15T06:56:54;6.88;;;4.28;;
71979;SDS011;59853;48.190;11.860;2022-11-15T06:59:39;9.88;;;4.35;;
71979;SDS011;59853;48.190;11.860;2022-11-15T07:02:23;8.00;;;5.10;;
71979;SDS011;59853;48.190;11.860;2022-11-15T07:05:08;10.43;;;5.38;;
71979;SDS011;59853;48.190;11.860;2022-11-15T07:07:53;13.75;;;6.85;;
71979;SDS011;59853;48.190;11.860;2022-11-15T07:10:37;11.30;;;5.70;;
71979;SDS011;59853;48.190;11.860;2022-11-15T07:13:24;13.23;;;6.60;;
71979;SDS011;59853;48.190;11.860;2022-11-15T07:16:09;14.20;;;6.97;;
71979;SDS011;59853;48.190;11.860;2022-11-15T07:18:54;15.52;;;7.00;;
71979;SDS011;59853;48.190;11.860;2022-11-15T07:21:42;12.25;;;6.55;;
71979;SDS011;59853;48.190;11.860;2022-11-15T07:24:26;14.50;;;7.20;;
71979;SDS011;59853;48.190;11.860;2022-11-15T07:27:11;20.73;;;9.15;;
71979;SDS011;59853;48.190;11.860;2022-11-15T07:29:55;22.05;;;7.93;;
71979;SDS011;59853;48.190;11.860;2022-11-15T07:32:39;13.63;;;5.50;;
71979;SDS011;59853;48.190;11.860;2022-11-15T07:35:24;182.13;;;43.33;;
71979;SDS011;59853;48.190;11.860;2022-11-15T07:38:09;79.10;;;22.88;;
71979;SDS011;59853;48.190;11.860;2022-11-15T07:40:56;12.38;;;5.95;;
71979;SDS011;59853;48.190;11.860;2022-11-15T07:43:45;11.75;;;7.72;;
71979;SDS011;59853;48.190;11.860;2022-11-15T07:46:30;9.25;;;5.43;;
71979;SDS011;59853;48.190;11.860;2022-11-15T07:49:14;8.27;;;4.72;;
71979;SDS011;59853;48.190;11.860;2022-11-15T07:51:59;10.60;;;5.30;;
71979;SDS011;59853;48.190;11.860;2022-11-15T07:54:43;10.85;;;5.53;;
71979;SDS011;59853;48.190;11.860;2022-11-15T07:57:27;9.60;;;6.05;;
71979;SDS011;59853;48.190;11.860;2022-11-15T08:00:12;17.65;;;8.02;;
71979;SDS011;59853;48.190;11.860;2022-11-15T08:03:01;12.45;;;6.28;;
71979;SDS011;59853;48.190;11.860;2022-11-15T08:05:58;8.85;;;5.70;;
71979;SDS011;59853;48.190;11.860;2022-11-15T08:08:42;9.48;;;5.15;;
71979;SDS011;59853;48.190;11.860;2022-11-15T08:11:26;9.95;;;5.50;;
71979;SDS011;59853;48.190;11.860;2022-11-15T08:14:11;14.57;;;5.30;;
71979;SDS011;59853;48.190;11.860;2022-11-15T08:16:55;10.20;;;5.13;;
71979;SDS011;59853;48.190;11.860;2022-11-15T08:19:39;6.82;;;4.55;;
71979;SDS011;59853;48.190;11.860;2022-11-15T08:22:23;7.63;;;4.07;;
71979;SDS011;59853;48.190;11.860;2022-11-15T08:25:07;6.88;;;4.10;;
71979;SDS011;59853;48.190;11.860;2022-11-15T08:27:52;7.35;;;4.28;;
71979;SDS011;59853;48.190;11.860;2022-11-15T08:30:38;7.60;;;3.90;;
71979;SDS011;59853;48.190;11.860;2022-11-15T08:33:25;9.25;;;4.10;;
71979;SDS011;59853;48.190;11.860;2022-11-15T08:36:14;6.68;;;3.70;;
71979;SDS011;59853;48.190;11.860;2022-11-15T08:38:59;7.35;;;3.75;;
71979;SDS011;59853;48.190;11.860;2022-11-15T08:41:43;7.57;;;4.15;;
71979;SDS011;59853;48.190;11.860;2022-11-15T08:44:28;7.45;;;4.30;;
71979;SDS011;59853;48.190;11.860;2022-11-15T08:47:12;7.47;;;4.15;;
71979;SDS011;59853;48.190;11.860;2022-11-15T08:49:57;7.22;;;4.13;;
71979;SDS011;59853;48.190;11.860;2022-11-15T08:52:41;8.20;;;4.30;;
71979;SDS011;59853;48.190;11.860;2022-11-15T08:55:25;7.95;;;3.67;;
71979;SDS011;59853;48.190;11.860;2022-11-15T08:58:10;4.85;;;2.90;;
71979;SDS011;59853;48.190;11.860;2022-11-15T09:00:56;5.50;;;3.35;;
71979;SDS011;59853;48.190;11.860;2022-11-15T09:03:43;5.40;;;3.03;;
71979;SDS011;59853;48.190;11.860;2022-11-15T09:06:27;5.00;;;2.92;;
71979;SDS011;59853;48.190;11.860;2022-11-15T09:09:12;6.57;;;3.50;;
71979;SDS011;59853;48.190;11.860;2022-11-15T09:11:56;6.60;;;3.40;;
71979;SDS011;59853;48.190;11.860;2022-11-15T09:14:40;6.40;;;3.28;;
71979;SDS011;59853;48.190;11.860;2022-11-15T09:17:25;7.28;;;3.08;;
71979;SDS011;59853;48.190;11.860;2022-11-15T09:20:09;5.10;;;2.88;;
71979;SDS011;59853;48.190;11.860;2022-11-15T09:22:54;3.95;;;2.90;;
71979;SDS011;59853;48.190;11.860;2022-11-15T09:25:38;6.97;;;3.22;;
71979;SDS011;59853;48.190;11.860;2022-11-15T09:28:22;4.35;;;2.53;;
71979;SDS011;59853;48.190;11.860;2022-11-15T09:31:07;4.70;;;2.70;;
71979;SDS011;59853;48.190;11.860;2022-11-15T09:33:51;3.55;;;2.28;;
71979;SDS011;59853;48.190;11.860;2022-11-15T09:36:35;4.85;;;2.45;;
71979;SDS011;59853;48.190;11.860;2022-11-15T09:39:19;4.90;;;2.45;;
71979;SDS011;59853;48.190;11.860;2022-11-15T09:45:12;4.00;;;2.55;;
71979;SDS011;59853;48.190;11.860;2022-11-15T09:56:46;5.45;;;3.13;;
71979;SDS011;59853;48.190;11.860;2022-11-15T09:59:25;5.20;;;3.15;;
71979;SDS011;59853;48.190;11.860;2022-11-15T10:04:58;4.72;;;2.97;;
71979;SDS011;59853;48.190;11.860;2022-11-15T10:07:37;7.72;;;3.03;;
71979;SDS011;59853;48.190;11.860;2022-11-15T10:13:24;7.88;;;2.83;;
71979;SDS011;59853;48.190;11.860;2022-11-15T10:15:53;4.65;;;2.70;;
71979;SDS011;59853;48.190;11.860;2022-11-15T10:18:32;4.35;;;2.60;;
71979;SDS011;59853;48.190;11.860;2022-11-15T10:21:17;4.35;;;2.40;;
71979;SDS011;59853;48.190;11.860;2022-11-15T10:23:46;3.33;;;2.20;;
71979;SDS011;59853;48.190;11.860;2022-11-15T10:26:14;4.72;;;2.28;;
71979;SDS011;59853;48.190;11.860;2022-11-15T10:28:41;4.68;;;2.30;;
71979;SDS011;59853;48.190;11.860;2022-11-15T10:31:23;4.63;;;2.50;;
71979;SDS011;59853;48.190;11.860;2022-11-15T10:33:51;4.30;;;2.60;;
71979;SDS011;59853;48.190;11.860;2022-11-15T10:36:18;4.60;;;2.70;;
71979;SDS011;59853;48.190;11.860;2022-11-15T10:38:55;4.47;;;2.60;;
71979;SDS011;59853;48.190;11.860;2022-11-15T10:44:08;3.50;;;2.40;;
71979;SDS011;59853;48.190;11.860;2022-11-15T10:46:38;4.47;;;2.42;;
71979;SDS011;59853;48.190;11.860;2022-11-15T10:49:12;4.25;;;2.40;;
71979;SDS011;59853;48.190;11.860;2022-11-15T10:51:46;3.90;;;2.08;;
71979;SDS011;59853;48.190;11.860;2022-11-15T10:54:23;4.05;;;2.30;;
71979;SDS011;59853;48.190;11.860;2022-11-15T10:56:51;3.95;;;2.35;;
71979;SDS011;59853;48.190;11.860;2022-11-15T10:59:25;4.38;;;2.53;;
71979;SDS011;59853;48.190;11.860;2022-11-15T11:01:57;4.20;;;2.25;;
71979;SDS011;59853;48.190;11.860;2022-11-15T11:04:22;5.57;;;2.58;;
71979;SDS011;59853;48.190;11.860;2022-11-15T11:06:53;4.70;;;2.70;;
71979;SDS011;59853;48.190;11.860;2022-11-15T11:12:03;3.65;;;2.15;;
71979;SDS011;59853;48.190;11.860;2022-11-15T11:14:31;3.33;;;2.15;;
71979;SDS011;59853;48.190;11.860;2022-11-15T11:17:02;2.97;;;2.03;;
71979;SDS011;59853;48.190;11.860;2022-11-15T11:20:00;3.45;;;1.88;;
71979;SDS011;59853;48.190;11.860;2022-11-15T11:42:20;2.40;;;1.40;;
71979;SDS011;59853;48.190;11.860;2022-11-15T11:47:40;1.70;;;1.02;;
71979;SDS011;59853;48.190;11.860;2022-11-15T11:50:21;1.80;;;1.10;;
71979;SDS011;59853;48.190;11.860;2022-11-15T11:55:34;2.30;;;0.98;;
71979;SDS011;59853;48.190;11.860;2022-11-15T11:58:19;1.60;;;1.00;;
71979;SDS011;59853;48.190;11.860;2022-11-15T12:01:08;2.38;;;1.30;;
71979;SDS011;59853;48.190;11.860;2022-11-15T12:06:02;1.80;;;1.00;;
71979;SDS011;59853;48.190;11.860;2022-11-15T12:08:48;2.13;;;1.10;;
71979;SDS011;59853;48.190;11.860;2022-11-15T12:11:22;1.60;;;0.88;;
71979;SDS011;59853;48.190;11.860;2022-11-15T12:13:59;3.03;;;0.80;;
71979;SDS011;59853;48.190;11.860;2022-11-15T12:16:28;2.60;;;1.10;;
71979;SDS011;59853;48.190;11.860;2022-11-15T12:18:55;1.88;;;1.25;;
71979;SDS011;59853;48.190;11.860;2022-11-15T12:24:02;2.95;;;1.10;;
71979;SDS011;59853;48.190;11.860;2022-11-15T12:26:35;1.77;;;1.17;;
71979;SDS011;59853;48.190;11.860;2022-11-15T12:29:05;2.42;;;1.23;;
71979;SDS011;59853;48.190;11.860;2022-11-15T12:31:42;3.13;;;1.65;;
71979;SDS011;59853;48.190;11.860;2022-11-15T12:36:46;1.88;;;1.08;;
71979;SDS011;59853;48.190;11.860;2022-11-15T12:39:13;1.73;;;1.08;;
71979;SDS011;59853;48.190;11.860;2022-11-15T12:41:40;1.60;;;1.23;;
71979;SDS011;59853;48.190;11.860;2022-11-15T13:02:24;2.20;;;1.30;;
71979;SDS011;59853;48.190;11.860;2022-11-15T13:04:52;3.13;;;1.55;;
71979;SDS011;59853;48.190;11.860;2022-11-15T13:10:00;2.35;;;1.60;;
71979;SDS011;59853;48.190;11.860;2022-11-15T13:14:53;3.25;;;1.75;;
71979;SDS011;59853;48.190;11.860;2022-11-15T13:17:24;3.03;;;1.80;;
71979;SDS011;59853;48.190;11.860;2022-11-15T13:22:39;3.25;;;1.70;;
71979;SDS011;59853;48.190;11.860;2022-11-15T13:28:01;2.70;;;1.63;;
71979;SDS011;59853;48.190;11.860;2022-11-15T13:33:16;4.03;;;2.20;;
71979;SDS011;59853;48.190;11.860;2022-11-15T13:35:52;4.75;;;2.70;;
71979;SDS011;59853;48.190;11.860;2022-11-15T13:40:56;3.00;;;2.00;;
71979;SDS011;59853;48.190;11.860;2022-11-15T13:43:25;4.55;;;2.15;;
71979;SDS011;59853;48.190;11.860;2022-11-15T13:48:43;4.28;;;2.20;;
71979;SDS011;59853;48.190;11.860;2022-11-15T13:51:17;3.55;;;2.10;;
71979;SDS011;59853;48.190;11.860;2022-11-15T13:53:46;4.78;;;2.30;;
71979;SDS011;59853;48.190;11.860;2022-11-15T13:56:16;3.03;;;2.10;;
71979;SDS011;59853;48.190;11.860;2022-11-15T13:58:43;3.30;;;2.00;;
71979;SDS011;59853;48.190;11.860;2022-11-15T14:01:13;3.53;;;1.83;;
71979;SDS011;59853;48.190;11.860;2022-11-15T14:04:02;3.78;;;2.20;;
71979;SDS011;59853;48.190;11.860;2022-11-15T14:06:28;4.18;;;2.10;;
71979;SDS011;59853;48.190;11.860;2022-11-15T14:11:32;3.72;;;2.20;;
71979;SDS011;59853;48.190;11.860;2022-11-15T14:16:35;4.55;;;2.20;;
71979;SDS011;59853;48.190;11.860;2022-11-15T14:19:06;4.07;;;2.30;;
71979;SDS011;59853;48.190;11.860;2022-11-15T14:21:36;3.80;;;2.28;;
71979;SDS011;59853;48.190;11.860;2022-11-15T14:24:16;4.80;;;2.60;;
71979;SDS011;59853;48.190;11.860;2022-11-15T14:26:45;4.15;;;2.50;;
71979;SDS011;59853;48.190;11.860;2022-11-15T14:29:24;4.15;;;2.30;;
71979;SDS011;59853;48.190;11.860;2022-11-15T14:31:53;5.00;;;2.83;;
71979;SDS011;59853;48.190;11.860;2022-11-15T14:34:19;5.25;;;2.80;;
71979;SDS011;59853;48.190;11.860;2022-11-15T14:36:47;8.52;;;3.33;;
71979;SDS011;59853;48.190;11.860;2022-11-15T14:39:13;6.05;;;2.83;;
71979;SDS011;59853;48.190;11.860;2022-11-15T14:41:38;6.22;;;3.03;;
71979;SDS011;59853;48.190;11.860;2022-11-15T14:44:04;4.82;;;2.80;;
71979;SDS011;59853;48.190;11.860;2022-11-15T14:46:30;5.32;;;2.65;;
71979;SDS011;59853;48.190;11.860;2022-11-15T14:48:56;4.93;;;3.00;;
71979;SDS011;59853;48.190;11.860;2022-11-15T14:51:22;9.15;;;3.17;;
71979;SDS011;59853;48.190;11.860;2022-11-15T14:53:48;6.28;;;3.35;;
71979;SDS011;59853;48.190;11.860;2022-11-15T14:56:14;7.82;;;3.83;;
71979;SDS011;59853;48.190;11.860;2022-11-15T14:58:41;10.15;;;3.95;;
71979;SDS011;59853;48.190;11.860;2022-11-15T15:01:14;7.97;;;4.60;;
71979;SDS011;59853;48.190;11.860;2022-11-15T15:03:41;7.28;;;4.15;;
71979;SDS011;59853;48.190;11.860;2022-11-15T15:06:06;8.38;;;4.45;;
71979;SDS011;59853;48.190;11.860;2022-11-15T15:08:34;9.77;;;5.07;;
71979;SDS011;59853;48.190;11.860;2022-11-15T15:10:59;7.53;;;4.57;;
71979;SDS011;59853;48.190;11.860;2022-11-15T15:13:25;13.15;;;5.32;;
71979;SDS011;59853;48.190;11.860;2022-11-15T15:15:51;8.32;;;5.00;;
71979;SDS011;59853;48.190;11.860;2022-11-15T15:18:17;10.07;;;5.45;;
71979;SDS011;59853;48.190;11.860;2022-11-15T15:20:44;9.38;;;4.93;;
71979;SDS011;59853;48.190;11.860;2022-11-15T15:23:14;10.32;;;5.88;;
71979;SDS011;59853;48.190;11.860;2022-11-15T15:25:41;9.95;;;5.15;;
71979;SDS011;59853;48.190;11.860;2022-11-15T15:28:07;10.00;;;5.68;;
71979;SDS011;59853;48.190;11.860;2022-11-15T15:30:33;13.48;;;6.03;;
71979;SDS011;59853;48.190;11.860;2022-11-15T15:32:58;10.88;;;5.55;;
71979;SDS011;59853;48.190;11.860;2022-11-15T15:35:24;14.10;;;6.40;;
71979;SDS011;59853;48.190;11.860;2022-11-15T15:37:54;17.15;;;5.93;;
71979;SDS011;59853;48.190;11.860;2022-11-15T15:40:21;12.90;;;6.13;;
71979;SDS011;59853;48.190;11.860;2022-11-15T15:42:47;10.75;;;6.10;;
71979;SDS011;59853;48.190;11.860;2022-11-15T15:45:14;13.07;;;6.20;;
71979;SDS011;59853;48.190;11.860;2022-11-15T15:47:40;14.55;;;6.75;;
71979;SDS011;59853;48.190;11.860;2022-11-15T15:50:16;10.45;;;6.20;;
71979;SDS011;59853;48.190;11.860;2022-11-15T15:52:47;12.50;;;6.00;;
71979;SDS011;59853;48.190;11.860;2022-11-15T15:55:12;12.88;;;6.97;;
71979;SDS011;59853;48.190;11.860;2022-11-15T15:57:38;11.88;;;7.00;;
71979;SDS011;59853;48.190;11.860;2022-11-15T16:00:04;9.85;;;6.07;;
71979;SDS011;59853;48.190;11.860;2022-11-15T16:02:37;14.32;;;6.55;;
71979;SDS011;59853;48.190;11.860;2022-11-15T16:05:03;17.95;;;7.57;;
71979;SDS011;59853;48.190;11.860;2022-11-15T16:07:29;11.70;;;6.88;;
71979;SDS011;59853;48.190;11.860;2022-11-15T16:09:55;12.43;;;6.60;;
71979;SDS011;59853;48.190;11.860;2022-11-15T16:12:30;10.43;;;5.75;;
71979;SDS011;59853;48.190;11.860;2022-11-15T16:14:56;16.37;;;8.80;;
71979;SDS011;59853;48.190;11.860;2022-11-15T16:17:24;110.70;;;48.30;;
71979;SDS011;59853;48.190;11.860;2022-11-15T16:19:52;41.65;;;17.73;;
71979;SDS011;59853;48.190;11.860;2022-11-15T16:22:17;34.65;;;15.23;;
71979;SDS011;59853;48.190;11.860;2022-11-15T16:24:45;15.20;;;8.20;;
71979;SDS011;59853;48.190;11.860;2022-11-15T16:27:17;15.02;;;7.82;;
71979;SDS011;59853;48.190;11.860;2022-11-15T16:29:44;14.07;;;7.20;;
71979;SDS011;59853;48.190;11.860;2022-11-15T16:32:11;12.75;;;6.43;;
71979;SDS011;59853;48.190;11.860;2022-11-15T16:34:36;13.50;;;7.22;;
71979;SDS011;59853;48.190;11.860;2022-11-15T16:37:02;12.95;;;7.38;;
71979;SDS011;59853;48.190;11.860;2022-11-15T16:39:28;14.82;;;6.70;;
71979;SDS011;59853;48.190;11.860;2022-11-15T16:41:57;15.85;;;7.22;;
71979;SDS011;59853;48.190;11.860;2022-11-15T16:44:23;14.93;;;7.00;;
71979;SDS011;59853;48.190;11.860;2022-11-15T16:46:50;13.88;;;6.65;;
71979;SDS011;59853;48.190;11.860;2022-11-15T16:49:17;11.02;;;6.03;;
71979;SDS011;59853;48.190;11.860;2022-11-15T16:51:47;10.32;;;6.40;;
71979;SDS011;59853;48.190;11.860;2022-11-15T16:54:13;16.15;;;9.73;;
71979;SDS011;59853;48.190;11.860;2022-11-15T16:56:39;20.15;;;9.65;;
71979;SDS011;59853;48.190;11.860;2022-11-15T16:59:06;27.55;;;14.27;;
71979;SDS011;59853;48.190;11.860;2022-11-15T17:01:32;23.88;;;12.02;;
71979;SDS011;59853;48.190;11.860;2022-11-15T17:04:11;26.48;;;11.98;;
71979;SDS011;59853;48.190;11.860;2022-11-15T17:06:40;31.98;;;16.55;;
71979;SDS011;59853;48.190;11.860;2022-11-15T17:09:17;32.08;;;15.95;;
71979;SDS011;59853;48.190;11.860;2022-11-15T17:11:44;26.70;;;13.05;;
71979;SDS011;59853;48.190;11.860;2022-11-15T17:14:10;30.55;;;13.75;;
71979;SDS011;59853;48.190;11.860;2022-11-15T17:16:36;21.70;;;11.27;;
71979;SDS011;59853;48.190;11.860;2022-11-15T17:19:10;28.10;;;13.32;;
71979;SDS011;59853;48.190;11.860;2022-11-15T17:24:02;22.58;;;10.73;;
71979;SDS011;59853;48.190;11.860;2022-11-15T17:26:28;27.75;;;12.82;;
71979;SDS011;59853;48.190;11.860;2022-11-15T17:28:54;29.80;;;14.20;;
71979;SDS011;59853;48.190;11.860;2022-11-15T17:31:21;38.10;;;18.52;;
71979;SDS011;59853;48.190;11.860;2022-11-15T17:33:47;34.25;;;17.55;;
71979;SDS011;59853;48.190;11.860;2022-11-15T17:36:12;21.25;;;12.40;;